Shin Puropan Maru — JG5508 — position and weather

sailwx.info

Track history (hours):
 
Tides and Currents Weather Stations Pressure Air Temp Water Temp Dewpoint Dewpoint Depression Visibility Wind Speed Wind Dir Waves Ship Positions

Shin Puropan Maru

Last reported at 2016-May-01 08:20 UTC. Time now 2016-May-02 01:26 UTC.
Position N 33°59' E 135°01'.

Length 66 m; draft 3.6 m.

Type: Ship (hazmat cat A). MMSI: 431100348.

Date/timePositionNaut miles runAvg speedWind from/ knotsBaromVisibWave heightAir tempDewpointWater temp
2016-May-01 08:20N 33°59' E 135°01'912.0
2016-May-01 07:33N 34°08' E 134°60'1212.1
2016-May-01 06:32N 34°20' E 134°59'1212.0
2016-May-01 05:33N 34°28' E 135°10'1212.4
2016-May-01 04:33N 34°36' E 135°22'4 1.2
2016-May-01 01:33N 34°34' E 135°26'0 0.4
2016-May-01 00:33N 34°35' E 135°25'4 4.0
2016-Apr-30 23:33N 34°35' E 135°21'1211.9
2016-Apr-30 22:33N 34°27' E 135°11'1211.4
2016-Apr-30 21:31N 34°18' E 135°00'1111.5
2016-Apr-30 20:32N 34°07' E 135°00'1 0.0
2016-Apr-29 05:30N 34°08' E 134°60'1412.5
2016-Apr-29 04:25N 34°21' E 135°00'1112.5
2016-Apr-29 03:33N 34°28' E 135°10'1312.6
2016-Apr-29 02:33N 34°36' E 135°22'4 1.1
2016-Apr-28 23:18N 34°34' E 135°26'1 1.6
2016-Apr-28 22:33N 34°35' E 135°25'2 1.8
2016-Apr-28 21:30N 34°35' E 135°23'0 0.0
2016-Apr-28 20:30N 34°35' E 135°23'0 0.0
2016-Apr-28 19:30N 34°35' E 135°23'0 0.0
2016-Apr-28 18:30N 34°35' E 135°23'0 0.0
2016-Apr-28 17:24N 34°35' E 135°23'0 0.0
2016-Apr-28 16:30N 34°35' E 135°23'0 0.0
2016-Apr-28 15:30N 34°35' E 135°23'0 0.0
2016-Apr-28 14:18N 34°35' E 135°23'0 0.0
2016-Apr-28 12:30N 34°35' E 135°23'0 0.0
2016-Apr-28 11:30N 34°35' E 135°23'4 4.0
2016-Apr-28 10:33N 34°33' E 135°19'1111.1
2016-Apr-28 09:34N 34°25' E 135°09'14 9.6
2016-Apr-28 08:05N 34°14' E 134°59'610.5
2016-Apr-28 07:34N 34°08' E 134°60'242 9.7
2016-Apr-27 06:33N 35°10' E 139°44'1110.5
2016-Apr-27 05:32N 35°20' E 139°42'1110.9
2016-Apr-27 04:33N 35°29' E 139°50'1211.8
2016-Apr-27 03:34N 35°33' E 140°04'2 1.5
2016-Apr-27 02:33N 35°33' E 140°05'0 0.0
2016-Apr-27 01:30N 35°33' E 140°05'0 0.0
2016-Apr-27 00:33N 35°33' E 140°05'0 0.1
2016-Apr-26 23:33N 35°33' E 140°05'1 0.7
2016-Apr-26 22:25N 35°33' E 140°05'0 0.0
2016-Apr-26 21:31N 35°33' E 140°05'0 0.0
2016-Apr-26 20:31N 35°33' E 140°05'0 0.0
2016-Apr-26 19:19N 35°33' E 140°05'0 0.0
2016-Apr-26 18:19N 35°33' E 140°05'0 0.0
2016-Apr-26 17:28N 35°34' E 140°05'0 0.0
2016-Apr-26 15:31N 35°34' E 140°05'0 0.0
2016-Apr-26 14:31N 35°33' E 140°05'0 0.0
2016-Apr-26 13:19N 35°33' E 140°05'0 0.0
2016-Apr-26 11:19N 35°33' E 140°05'4 4.7
2016-Apr-26 10:33N 35°33' E 140°01'1312.7
2016-Apr-26 09:33N 35°26' E 139°48'1111.2
2016-Apr-26 08:33N 35°15' E 139°47'1212.4
2016-Apr-26 07:33N 35°04' E 139°40'1412.6
2016-Apr-26 06:26N 34°54' E 139°27'5212.3
2016-Apr-26 02:12N 34°29' E 138°32'177 9.5
2016-Apr-25 07:33N 34°09' E 134°59'1513.4
2016-Apr-25 06:27N 34°24' E 135°02'1213.1
2016-Apr-25 05:33N 34°31' E 135°13'7 6.8
2016-Apr-25 04:33N 34°36' E 135°19'4 4.1
2016-Apr-25 03:33N 34°36' E 135°24'2 0.7
2016-Apr-25 00:19N 34°34' E 135°26'5 6.0
2016-Apr-24 23:33N 34°35' E 135°20'1212.0
2016-Apr-24 22:34N 34°28' E 135°09'11 9.4
2016-Apr-24 21:21N 34°19' E 135°00'810.3
2016-Apr-24 20:33N 34°11' E 134°60'7 0.2
2016-Apr-23 04:29N 34°18' E 134°58'1212.9
2016-Apr-23 03:33N 34°27' E 135°08'1312.5
2016-Apr-23 02:33N 34°35' E 135°20'5 1.1
2016-Apr-22 22:33N 34°35' E 135°25'6 6.0
2016-Apr-22 21:33N 34°33' E 135°18'1111.2
2016-Apr-22 20:33N 34°26' E 135°08'1211.0
2016-Apr-22 19:28N 34°16' E 134°59'1011.0
2016-Apr-22 18:32N 34°06' E 135°00'  
Track history (hours):
 
Tides and Currents Weather Stations Pressure Air Temp Water Temp Dewpoint Dewpoint Depression Visibility Wind Speed Wind Dir Waves Ship Positions

Shin Puropan Maru

Last reported at 2016-May-01 08:20 UTC. Time now 2016-May-02 01:26 UTC.
Position N 33°59' E 135°01'.

Length 66 m; draft 3.6 m.

Type: Ship (hazmat cat A). MMSI: 431100348.

Date/timePositionNaut miles runAvg speedWind from/ knotsBaromVisibWave heightAir tempDewpointWater temp
2016-May-01 08:20N 33°59' E 135°01'912.0
2016-May-01 07:33N 34°08' E 134°60'1212.1
2016-May-01 06:32N 34°20' E 134°59'1212.0
2016-May-01 05:33N 34°28' E 135°10'1212.4
2016-May-01 04:33N 34°36' E 135°22'4 1.2
2016-May-01 01:33N 34°34' E 135°26'0 0.4
2016-May-01 00:33N 34°35' E 135°25'4 4.0
2016-Apr-30 23:33N 34°35' E 135°21'1211.9
2016-Apr-30 22:33N 34°27' E 135°11'1211.4
2016-Apr-30 21:31N 34°18' E 135°00'1111.5
2016-Apr-30 20:32N 34°07' E 135°00'1 0.0
2016-Apr-29 05:30N 34°08' E 134°60'1412.5
2016-Apr-29 04:25N 34°21' E 135°00'1112.5
2016-Apr-29 03:33N 34°28' E 135°10'1312.6
2016-Apr-29 02:33N 34°36' E 135°22'4 1.1
2016-Apr-28 23:18N 34°34' E 135°26'1 1.6
2016-Apr-28 22:33N 34°35' E 135°25'2 1.8
2016-Apr-28 21:30N 34°35' E 135°23'0 0.0
2016-Apr-28 20:30N 34°35' E 135°23'0 0.0
2016-Apr-28 19:30N 34°35' E 135°23'0 0.0
2016-Apr-28 18:30N 34°35' E 135°23'0 0.0
2016-Apr-28 17:24N 34°35' E 135°23'0 0.0
2016-Apr-28 16:30N 34°35' E 135°23'0 0.0
2016-Apr-28 15:30N 34°35' E 135°23'0 0.0
2016-Apr-28 14:18N 34°35' E 135°23'0 0.0
2016-Apr-28 12:30N 34°35' E 135°23'0 0.0
2016-Apr-28 11:30N 34°35' E 135°23'4 4.0
2016-Apr-28 10:33N 34°33' E 135°19'1111.1
2016-Apr-28 09:34N 34°25' E 135°09'14 9.6
2016-Apr-28 08:05N 34°14' E 134°59'610.5
2016-Apr-28 07:34N 34°08' E 134°60'242 9.7
2016-Apr-27 06:33N 35°10' E 139°44'1110.5
2016-Apr-27 05:32N 35°20' E 139°42'1110.9
2016-Apr-27 04:33N 35°29' E 139°50'1211.8
2016-Apr-27 03:34N 35°33' E 140°04'2 1.5
2016-Apr-27 02:33N 35°33' E 140°05'0 0.0
2016-Apr-27 01:30N 35°33' E 140°05'0 0.0
2016-Apr-27 00:33N 35°33' E 140°05'0 0.1
2016-Apr-26 23:33N 35°33' E 140°05'1 0.7
2016-Apr-26 22:25N 35°33' E 140°05'0 0.0
2016-Apr-26 21:31N 35°33' E 140°05'0 0.0
2016-Apr-26 20:31N 35°33' E 140°05'0 0.0
2016-Apr-26 19:19N 35°33' E 140°05'0 0.0
2016-Apr-26 18:19N 35°33' E 140°05'0 0.0
2016-Apr-26 17:28N 35°34' E 140°05'0 0.0
2016-Apr-26 15:31N 35°34' E 140°05'0 0.0
2016-Apr-26 14:31N 35°33' E 140°05'0 0.0
2016-Apr-26 13:19N 35°33' E 140°05'0 0.0
2016-Apr-26 11:19N 35°33' E 140°05'4 4.7
2016-Apr-26 10:33N 35°33' E 140°01'1312.7
2016-Apr-26 09:33N 35°26' E 139°48'1111.2
2016-Apr-26 08:33N 35°15' E 139°47'1212.4
2016-Apr-26 07:33N 35°04' E 139°40'1412.6
2016-Apr-26 06:26N 34°54' E 139°27'5212.3
2016-Apr-26 02:12N 34°29' E 138°32'177 9.5
2016-Apr-25 07:33N 34°09' E 134°59'1513.4
2016-Apr-25 06:27N 34°24' E 135°02'1213.1
2016-Apr-25 05:33N 34°31' E 135°13'7 6.8
2016-Apr-25 04:33N 34°36' E 135°19'4 4.1
2016-Apr-25 03:33N 34°36' E 135°24'2 0.7
2016-Apr-25 00:19N 34°34' E 135°26'5 6.0
2016-Apr-24 23:33N 34°35' E 135°20'1212.0
2016-Apr-24 22:34N 34°28' E 135°09'11 9.4
2016-Apr-24 21:21N 34°19' E 135°00'810.3
2016-Apr-24 20:33N 34°11' E 134°60'7 0.2
2016-Apr-23 04:29N 34°18' E 134°58'1212.9
2016-Apr-23 03:33N 34°27' E 135°08'1312.5
2016-Apr-23 02:33N 34°35' E 135°20'5 1.1
2016-Apr-22 22:33N 34°35' E 135°25'6 6.0
2016-Apr-22 21:33N 34°33' E 135°18'1111.2
2016-Apr-22 20:33N 34°26' E 135°08'1211.0
2016-Apr-22 19:28N 34°16' E 134°59'1011.0
2016-Apr-22 18:32N 34°06' E 135°00'  

Dump ship's entire track history